Ride Results

Scone (14-07-1989)
Ride distance: 200.0 km

Outcomes - Scone (14-07-1989)
Division No. of Entries Retired / DNE Completed Withdrawn Ineligible V/O Percentage Completed
HW 6 - 4 - - 2 66.67%
MW 27 - 17 1 - 9 62.96%
LW 8 - 5 1 - 2 62.50%
JN 3 - 1 1 - 1 33.33%
Totals 44 - 27 3 - 14 61.36%
Results - Scone (14-07-1989)
No. Rider Horse Place Time Leg Speeds Total
Km/Hr
H/R bpm
Heavyweight
3826 Matthew Walker Parlour Mountain Petra 1 (BC) 14:45:04 12.1, 13.2, 17.6, 14.4, 12.6 13.56 36, 40, 46, 51, 49, 49 (Avg:47)
6258 Greg Weatherby Gaziya 2 15:51:52 13.7, 12.1, 16.8, 10.7, 11.9 12.61 32, 38, 45, 48, 47, 41 (Avg:43)
3828 Helen Cameron Minya Lass 3 16:13:00 12.1, 13.3, 16.3, 10.2, 11.7 12.33 40, 48, 44, 50, 50, 42 (Avg:46)
3832 Don Boland Blue Bead Royal Reprise 4 17:47:00 10.8, 11.7, 12.9, 10.5, 10.8 11.25 40, 38, 42, 47, 36, 36 (Avg:39)
24 Mario Suprano Dillon Lame L5 0:00:00 14.6, 13.3, 17.6, 10.8, 12.4 - 37, 42, 43, 39, 50, 44 (Avg:43)
35 Denise Trollope Churinga Babooshka Lame L5 0:00:00 14.6, 13.3, 17.3, 10.6, 12.6 - 38, 42, 48, 54, 51, 48 (Avg:48)
Middleweight
3818 Joanna Preston Finland Park Rosinante 1 (BC) 12:21:08 17.4, 15.2, 15.9, 15.2, 17.1 16.19 39, 46, 42, 46, 48, 45 (Avg:45)
3819 Robin Van der Wegen Ralvon Royalty 2 12:21:09 17.4, 14.6, 15.7, 15.8, 17.2 16.19 37, 45, 50, 47, 49, 56 (Avg:49)
3820 Patricia Hall Brown Cindy 3 12:23:14 15.1, 15.3, 19.1, 14.7, 17.4 16.15 34, 48, 46, 45, 52, 50 (Avg:48)
3821 Kevin Bohm Kelkette Park Lyric 4 12:40:20 17.1, 13.3, 18.3, 15.9, 15.6 15.78 38, 44, 42, 45, 45, 48 (Avg:44)
3822 John Symons Freeway 5 13:46:00 15.0, 15.0, 18.5, 14.3, 12.2 14.53 36, 40, 50, 49, 53, 48 (Avg:48)
3823 Terry Wood Deepbank Brigadoon 6 13:53:05 15.1, 15.3, 19.3, 15.2, 11.2 14.40 46, 46, 50, 51, 49, 60 (Avg:51)
3824 Carmen Batterham General Lee 7 14:24:00 14.7, 13.2, 18.3, 13.8, 12.0 13.89 46, 45, 46, 49, 47, 44 (Avg:46)
3825 Simone E. Flint Bronton Clayton 8 14:25:00 15.1, 15.3, 19.1, 11.3, 12.0 13.87 33, 38, 42, 51, 50, 44 (Avg:45)
13017 Andrew Paton Windsor Park Saam 9 14:59:00 14.6, 13.3, 17.1, 11.0, 12.6 13.35 37, 44, 43, 42, 44, 45 (Avg:43)
3827 Margaret Godbee Aloha Baraki 10 14:59:01 14.6, 13.3, 17.8, 10.8, 12.6 13.35 32, 48, 47, 40, 42, 41 (Avg:43)
3829 Arthur Waghorn Hansara 11 16:22:00 11.3, 13.5, 12.3, 12.4, 11.7 12.22 34, 44, 44, 42, 54, 47 (Avg:46)
3831 Dominique Bennet Lassiter 12 16:49:00 11.1, 11.7, 14.4, 13.0, 10.7 11.89 36, 32, 43, 41, 48, 43 (Avg:41)
3830 Lynda Jung Sanroblee Sparkle 12 16:49:00 11.2, 11.7, 14.4, 13.0, 10.7 11.89 37, 41, 50, 49, 52, 46 (Avg:47)
3836 Robyn Coombes Nyora Cleo 14 17:05:00 15.7, 12.6, 15.1, 8.1, 10.7 11.71 36, 42, 47, 46, 44, 41 (Avg:44)
3833 David Evans Summerwood Rebecca 15 18:00:00 12.1, 11.6, 12.8, 9.1, 10.7 11.11 46, 40, 45, 41, 45, 36 (Avg:41)
3834 Peter Verrydt Berkie Kadeen 16 19:15:00 11.1, 12.2, 12.6, 8.9, 8.8 10.39 38, 41, 46, 46, 48, 47 (Avg:45)
3835 Paul Grieves Gilgalad 17 19:33:00 11.1, 11.4, 12.9, 9.4, 8.3 10.23 35, 42, 44, 47, 51, 39 (Avg:44)
33 Lyn Bailey Faraway Reckless Lame L5 0:00:00 11.1, 11.4, 12.9, 9.4, 24.9 - 36, 39, 42, 43, 50, 50 (Avg:44)
12 Melanie O'Flynn Piedy Lame L5 0:00:00 12.0, 12.1, 12.0, 8.7, 10.7 - 42, 42, 57, 47, 52, 46 (Avg:48)
19 Philippa Davis Santarabia Raskalla Lame L4 0:00:00 11.3, 11.6, 14.5, 12.2 - 42, 47, 48, 50, 53 (Avg:49)
22 Jenny Oliver Gungarlin Tollo Lame L4 0:00:00 16.0, 16.3, 13.1, 11.1 - 39, 45, 57, 55, 55 (Avg:53)
15 June Petersen Abbeline Chrystel Lame L4 0:00:00 14.7, 13.2, 18.3, 13.7 - 37, 38, 41, 43, 44 (Avg:41)
4 John Robertson Turon Valley Moonshadow Lame L4 0:00:00 12.0, 13.3, 16.3, 10.2 - 34, 46, 49, 48, 48 (Avg:47)
7 Ian Harris Merava Lame L3 0:00:00 17.4, 15.2, 15.9 - 48, 44, 52, 52 (Avg:49)
14 Arthur Henderson Fakama Lame L3 0:00:00 15.0, 13.0, 14.8 - 29, 43, 40, 42 (Avg:41)
18 Eric Robinson Matta Mia Ishab Lame L3 0:00:00 17.4, 15.1, 15.9 - 36, 40, 54, 50 (Avg:48)
11 Wilma Roche Robaire Grey Kamil Widthdrawn L3 0:00:00 - - 39, 43, 48, 53 (Avg:48)
Lightweight
3837 Judith Burton Abbeline Chantel 1 (BC) 13:46:00 15.7, 14.7, 18.0, 13.6, 12.6 14.53 35, 47, 43, 47, 48, 36 (Avg:44)
3839 Rachel Bohm Silver Ibn Zarak 2 16:22:00 12.6, 12.6, 14.4, 10.6, 11.7 12.22 35, 38, 40, 42, 44, 41 (Avg:41)
3838 Meg Wade Newbridge Naswaan 2 16:22:00 12.6, 12.6, 14.4, 10.6, 11.7 12.22 40, 48, 38, 42, 44, 37 (Avg:41)
3840 Scott Tweedie Buckskinshot 4 19:15:00 11.1, 12.2, 12.6, 8.9, 8.8 10.39 38, 41, 44, 43, 42, 42 (Avg:42)
3841 Lynette Elfick Merindoo Golden Boy 5 19:33:00 11.1, 11.4, 12.9, 9.4, 8.3 10.23 40, 37, 40, 43, 46, 31 (Avg:39)
102 Linda Upsdell Aragon Lame L4 0:00:00 11.1, 11.4, 12.9, 9.4 - 38, 42, 46, 44, 45 (Avg:44)
103 Lynette Elfick Romany Karma Widthdrawn L3 0:00:00 - - 41, 35, 45, 45 (Avg:41)
105 Dale Fitz-Gerald Windsor Park Court Jester Heart Rate L2 0:00:00 14.5, 10.4 - 36, 53, 61 (Avg:57)
Junior
3842 Sonia Bonham Santarabia Mazra 1 14:54:00 14.7, 13.3, 19.1, 11.4, 11.9 13.42 36, 38, 50, 52, 55, 48 (Avg:48)
107 Amanda Harvey Windella Badi'a Lame L2 0:00:00 17.4, 15.2 - 34, 32, 46 (Avg:39)
108 Joanne Faulkner Petrenah Al Naram Widthdrawn L1 0:00:00 - - 31, 39 (Avg:39)